sensor_id;sensor_type;location;lat;lon;timestamp;P1;durP1;ratioP1;P2;durP2;ratioP2
13566;SDS011;6855;48.112;11.298;2022-08-27T00:02:27;10.27;;;5.27;;
13566;SDS011;6855;48.112;11.298;2022-08-27T00:04:54;7.50;;;5.30;;
13566;SDS011;6855;48.112;11.298;2022-08-27T00:07:21;10.80;;;6.07;;
13566;SDS011;6855;48.112;11.298;2022-08-27T00:09:48;8.20;;;5.40;;
13566;SDS011;6855;48.112;11.298;2022-08-27T00:12:16;8.40;;;5.17;;
13566;SDS011;6855;48.112;11.298;2022-08-27T00:14:43;8.20;;;5.17;;
13566;SDS011;6855;48.112;11.298;2022-08-27T00:17:10;11.50;;;5.83;;
13566;SDS011;6855;48.112;11.298;2022-08-27T00:19:39;9.03;;;5.60;;
13566;SDS011;6855;48.112;11.298;2022-08-27T00:22:07;8.63;;;4.63;;
13566;SDS011;6855;48.112;11.298;2022-08-27T00:24:34;8.50;;;5.33;;
13566;SDS011;6855;48.112;11.298;2022-08-27T00:27:02;6.90;;;5.70;;
13566;SDS011;6855;48.112;11.298;2022-08-27T00:29:29;11.13;;;6.00;;
13566;SDS011;6855;48.112;11.298;2022-08-27T00:31:56;8.20;;;5.20;;
13566;SDS011;6855;48.112;11.298;2022-08-27T00:34:24;10.90;;;4.97;;
13566;SDS011;6855;48.112;11.298;2022-08-27T00:36:53;11.63;;;6.07;;
13566;SDS011;6855;48.112;11.298;2022-08-27T00:39:20;7.30;;;5.43;;
13566;SDS011;6855;48.112;11.298;2022-08-27T00:41:48;5.83;;;5.17;;
13566;SDS011;6855;48.112;11.298;2022-08-27T00:44:15;9.10;;;5.20;;
13566;SDS011;6855;48.112;11.298;2022-08-27T00:46:43;11.43;;;5.43;;
13566;SDS011;6855;48.112;11.298;2022-08-27T00:49:12;8.60;;;4.80;;
13566;SDS011;6855;48.112;11.298;2022-08-27T00:51:40;7.73;;;4.80;;
13566;SDS011;6855;48.112;11.298;2022-08-27T00:54:09;13.43;;;4.73;;
13566;SDS011;6855;48.112;11.298;2022-08-27T00:56:38;14.67;;;5.10;;
13566;SDS011;6855;48.112;11.298;2022-08-27T00:59:08;10.73;;;5.97;;
13566;SDS011;6855;48.112;11.298;2022-08-27T01:01:35;7.50;;;4.60;;
13566;SDS011;6855;48.112;11.298;2022-08-27T01:04:23;9.57;;;5.20;;
13566;SDS011;6855;48.112;11.298;2022-08-27T01:06:50;10.47;;;5.53;;
13566;SDS011;6855;48.112;11.298;2022-08-27T01:09:18;7.50;;;5.40;;
13566;SDS011;6855;48.112;11.298;2022-08-27T01:11:46;14.43;;;5.33;;
13566;SDS011;6855;48.112;11.298;2022-08-27T01:14:14;11.00;;;5.50;;
13566;SDS011;6855;48.112;11.298;2022-08-27T01:16:44;7.13;;;5.13;;
13566;SDS011;6855;48.112;11.298;2022-08-27T01:19:13;8.20;;;5.67;;
13566;SDS011;6855;48.112;11.298;2022-08-27T01:21:44;9.30;;;5.20;;
13566;SDS011;6855;48.112;11.298;2022-08-27T01:24:22;11.00;;;5.87;;
13566;SDS011;6855;48.112;11.298;2022-08-27T01:26:51;6.50;;;5.13;;
13566;SDS011;6855;48.112;11.298;2022-08-27T01:29:18;8.87;;;5.73;;
13566;SDS011;6855;48.112;11.298;2022-08-27T01:31:45;11.83;;;6.80;;
13566;SDS011;6855;48.112;11.298;2022-08-27T01:34:13;9.07;;;5.10;;
13566;SDS011;6855;48.112;11.298;2022-08-27T01:36:40;9.97;;;5.10;;
13566;SDS011;6855;48.112;11.298;2022-08-27T01:39:07;17.37;;;5.70;;
13566;SDS011;6855;48.112;11.298;2022-08-27T01:41:36;8.70;;;5.40;;
13566;SDS011;6855;48.112;11.298;2022-08-27T01:44:04;12.13;;;6.30;;
13566;SDS011;6855;48.112;11.298;2022-08-27T01:46:31;12.30;;;5.80;;
13566;SDS011;6855;48.112;11.298;2022-08-27T01:48:58;8.70;;;5.63;;
13566;SDS011;6855;48.112;11.298;2022-08-27T01:51:25;12.70;;;6.50;;
13566;SDS011;6855;48.112;11.298;2022-08-27T01:53:52;7.33;;;6.00;;
13566;SDS011;6855;48.112;11.298;2022-08-27T01:56:20;11.97;;;5.87;;
13566;SDS011;6855;48.112;11.298;2022-08-27T01:58:48;8.10;;;6.47;;
13566;SDS011;6855;48.112;11.298;2022-08-27T02:01:16;13.13;;;6.60;;
13566;SDS011;6855;48.112;11.298;2022-08-27T02:03:43;9.90;;;6.30;;
13566;SDS011;6855;48.112;11.298;2022-08-27T02:06:12;10.07;;;5.60;;
13566;SDS011;6855;48.112;11.298;2022-08-27T02:08:40;9.07;;;5.40;;
13566;SDS011;6855;48.112;11.298;2022-08-27T02:11:07;9.53;;;5.07;;
13566;SDS011;6855;48.112;11.298;2022-08-27T02:13:35;6.93;;;4.30;;
13566;SDS011;6855;48.112;11.298;2022-08-27T02:16:04;7.40;;;5.37;;
13566;SDS011;6855;48.112;11.298;2022-08-27T02:18:33;10.93;;;5.77;;
13566;SDS011;6855;48.112;11.298;2022-08-27T02:21:02;7.03;;;4.90;;
13566;SDS011;6855;48.112;11.298;2022-08-27T02:23:30;9.80;;;4.37;;
13566;SDS011;6855;48.112;11.298;2022-08-27T02:25:57;7.33;;;4.47;;
13566;SDS011;6855;48.112;11.298;2022-08-27T02:28:24;9.30;;;4.13;;
13566;SDS011;6855;48.112;11.298;2022-08-27T02:30:52;5.80;;;4.23;;
13566;SDS011;6855;48.112;11.298;2022-08-27T02:33:20;6.63;;;4.07;;
13566;SDS011;6855;48.112;11.298;2022-08-27T02:35:47;10.13;;;4.07;;
13566;SDS011;6855;48.112;11.298;2022-08-27T02:38:15;4.33;;;3.90;;
13566;SDS011;6855;48.112;11.298;2022-08-27T02:40:42;5.80;;;4.10;;
13566;SDS011;6855;48.112;11.298;2022-08-27T02:43:09;6.50;;;3.33;;
13566;SDS011;6855;48.112;11.298;2022-08-27T02:45:36;4.23;;;3.23;;
13566;SDS011;6855;48.112;11.298;2022-08-27T02:48:04;6.63;;;3.30;;
13566;SDS011;6855;48.112;11.298;2022-08-27T02:50:33;4.50;;;2.77;;
13566;SDS011;6855;48.112;11.298;2022-08-27T02:53:01;3.50;;;2.90;;
13566;SDS011;6855;48.112;11.298;2022-08-27T02:55:29;4.10;;;2.70;;
13566;SDS011;6855;48.112;11.298;2022-08-27T02:57:57;2.50;;;2.30;;
13566;SDS011;6855;48.112;11.298;2022-08-27T03:00:24;4.23;;;3.13;;
13566;SDS011;6855;48.112;11.298;2022-08-27T03:02:52;2.70;;;2.10;;
13566;SDS011;6855;48.112;11.298;2022-08-27T03:05:20;2.70;;;2.50;;
13566;SDS011;6855;48.112;11.298;2022-08-27T03:07:49;2.50;;;2.30;;
13566;SDS011;6855;48.112;11.298;2022-08-27T03:10:17;2.63;;;2.17;;
13566;SDS011;6855;48.112;11.298;2022-08-27T03:12:44;3.17;;;2.10;;
13566;SDS011;6855;48.112;11.298;2022-08-27T03:15:12;2.70;;;2.43;;
13566;SDS011;6855;48.112;11.298;2022-08-27T03:17:40;2.37;;;2.17;;
13566;SDS011;6855;48.112;11.298;2022-08-27T03:20:25;3.00;;;2.00;;
13566;SDS011;6855;48.112;11.298;2022-08-27T03:22:54;6.10;;;2.00;;
13566;SDS011;6855;48.112;11.298;2022-08-27T03:25:21;2.23;;;2.03;;
13566;SDS011;6855;48.112;11.298;2022-08-27T03:27:49;4.43;;;2.00;;
13566;SDS011;6855;48.112;11.298;2022-08-27T03:30:17;2.67;;;2.13;;
13566;SDS011;6855;48.112;11.298;2022-08-27T03:32:44;2.67;;;2.20;;
13566;SDS011;6855;48.112;11.298;2022-08-27T03:35:12;3.57;;;2.20;;
13566;SDS011;6855;48.112;11.298;2022-08-27T03:37:39;2.87;;;2.40;;
13566;SDS011;6855;48.112;11.298;2022-08-27T03:40:08;2.60;;;2.00;;
13566;SDS011;6855;48.112;11.298;2022-08-27T03:42:36;2.70;;;2.30;;
13566;SDS011;6855;48.112;11.298;2022-08-27T03:45:03;2.47;;;2.27;;
13566;SDS011;6855;48.112;11.298;2022-08-27T03:47:31;2.50;;;2.30;;
13566;SDS011;6855;48.112;11.298;2022-08-27T03:49:58;2.30;;;2.10;;
13566;SDS011;6855;48.112;11.298;2022-08-27T03:52:26;3.23;;;2.10;;
13566;SDS011;6855;48.112;11.298;2022-08-27T03:54:53;3.00;;;2.33;;
13566;SDS011;6855;48.112;11.298;2022-08-27T03:57:22;3.13;;;2.83;;
13566;SDS011;6855;48.112;11.298;2022-08-27T03:59:49;6.03;;;2.77;;
13566;SDS011;6855;48.112;11.298;2022-08-27T04:02:17;3.73;;;2.87;;
13566;SDS011;6855;48.112;11.298;2022-08-27T04:04:44;3.73;;;2.70;;
13566;SDS011;6855;48.112;11.298;2022-08-27T04:07:11;3.47;;;2.77;;
13566;SDS011;6855;48.112;11.298;2022-08-27T04:09:38;3.00;;;2.57;;
13566;SDS011;6855;48.112;11.298;2022-08-27T04:12:06;3.13;;;2.67;;
13566;SDS011;6855;48.112;11.298;2022-08-27T04:14:35;4.67;;;2.80;;
13566;SDS011;6855;48.112;11.298;2022-08-27T04:17:02;3.50;;;2.57;;
13566;SDS011;6855;48.112;11.298;2022-08-27T04:19:30;4.07;;;3.23;;
13566;SDS011;6855;48.112;11.298;2022-08-27T04:21:59;5.33;;;2.70;;
13566;SDS011;6855;48.112;11.298;2022-08-27T04:24:27;4.40;;;3.07;;
13566;SDS011;6855;48.112;11.298;2022-08-27T04:26:54;4.57;;;2.83;;
13566;SDS011;6855;48.112;11.298;2022-08-27T04:29:21;4.40;;;3.13;;
13566;SDS011;6855;48.112;11.298;2022-08-27T04:31:50;3.20;;;2.90;;
13566;SDS011;6855;48.112;11.298;2022-08-27T04:34:17;3.73;;;2.70;;
13566;SDS011;6855;48.112;11.298;2022-08-27T04:36:44;3.10;;;2.80;;
13566;SDS011;6855;48.112;11.298;2022-08-27T04:39:12;5.03;;;2.90;;
13566;SDS011;6855;48.112;11.298;2022-08-27T04:41:40;3.57;;;3.10;;
13566;SDS011;6855;48.112;11.298;2022-08-27T04:44:08;4.93;;;3.13;;
13566;SDS011;6855;48.112;11.298;2022-08-27T04:46:38;6.00;;;2.37;;
13566;SDS011;6855;48.112;11.298;2022-08-27T04:49:08;3.70;;;2.87;;
13566;SDS011;6855;48.112;11.298;2022-08-27T04:51:36;3.10;;;2.63;;
13566;SDS011;6855;48.112;11.298;2022-08-27T04:54:04;4.30;;;2.30;;
13566;SDS011;6855;48.112;11.298;2022-08-27T04:56:31;3.00;;;2.77;;
13566;SDS011;6855;48.112;11.298;2022-08-27T04:59:00;4.07;;;3.23;;
13566;SDS011;6855;48.112;11.298;2022-08-27T05:01:28;4.40;;;3.80;;
13566;SDS011;6855;48.112;11.298;2022-08-27T05:03:55;3.97;;;3.67;;
13566;SDS011;6855;48.112;11.298;2022-08-27T05:06:25;6.90;;;4.00;;
13566;SDS011;6855;48.112;11.298;2022-08-27T05:08:52;4.00;;;3.57;;
13566;SDS011;6855;48.112;11.298;2022-08-27T05:11:19;8.50;;;4.43;;
13566;SDS011;6855;48.112;11.298;2022-08-27T05:13:47;5.73;;;4.27;;
13566;SDS011;6855;48.112;11.298;2022-08-27T05:16:15;4.70;;;3.90;;
13566;SDS011;6855;48.112;11.298;2022-08-27T05:18:43;4.00;;;3.60;;
13566;SDS011;6855;48.112;11.298;2022-08-27T05:21:14;5.70;;;4.20;;
13566;SDS011;6855;48.112;11.298;2022-08-27T05:23:43;5.50;;;3.80;;
13566;SDS011;6855;48.112;11.298;2022-08-27T05:26:10;4.17;;;3.77;;
13566;SDS011;6855;48.112;11.298;2022-08-27T05:28:38;4.13;;;3.73;;
13566;SDS011;6855;48.112;11.298;2022-08-27T05:31:06;7.47;;;3.77;;
13566;SDS011;6855;48.112;11.298;2022-08-27T05:33:33;4.60;;;3.93;;
13566;SDS011;6855;48.112;11.298;2022-08-27T05:36:02;4.80;;;4.23;;
13566;SDS011;6855;48.112;11.298;2022-08-27T05:38:30;5.10;;;3.90;;
13566;SDS011;6855;48.112;11.298;2022-08-27T05:41:02;5.77;;;4.50;;
13566;SDS011;6855;48.112;11.298;2022-08-27T05:43:31;4.77;;;4.10;;
13566;SDS011;6855;48.112;11.298;2022-08-27T05:45:58;7.00;;;4.63;;
13566;SDS011;6855;48.112;11.298;2022-08-27T05:48:25;6.37;;;4.50;;
13566;SDS011;6855;48.112;11.298;2022-08-27T05:50:52;4.83;;;3.87;;
13566;SDS011;6855;48.112;11.298;2022-08-27T05:53:19;4.83;;;4.33;;
13566;SDS011;6855;48.112;11.298;2022-08-27T05:55:47;4.77;;;4.10;;
13566;SDS011;6855;48.112;11.298;2022-08-27T05:58:16;7.40;;;5.33;;
13566;SDS011;6855;48.112;11.298;2022-08-27T06:00:57;6.23;;;4.83;;
13566;SDS011;6855;48.112;11.298;2022-08-27T06:03:30;5.37;;;4.80;;
13566;SDS011;6855;48.112;11.298;2022-08-27T06:06:01;6.23;;;5.20;;
13566;SDS011;6855;48.112;11.298;2022-08-27T06:08:29;7.73;;;6.00;;
13566;SDS011;6855;48.112;11.298;2022-08-27T06:10:58;11.93;;;6.17;;
13566;SDS011;6855;48.112;11.298;2022-08-27T06:13:27;8.53;;;5.90;;
13566;SDS011;6855;48.112;11.298;2022-08-27T06:15:59;8.40;;;5.53;;
13566;SDS011;6855;48.112;11.298;2022-08-27T06:18:26;8.00;;;5.97;;
13566;SDS011;6855;48.112;11.298;2022-08-27T06:20:54;6.80;;;5.40;;
13566;SDS011;6855;48.112;11.298;2022-08-27T06:23:21;6.10;;;4.97;;
13566;SDS011;6855;48.112;11.298;2022-08-27T06:25:49;6.80;;;5.13;;
13566;SDS011;6855;48.112;11.298;2022-08-27T06:28:19;5.90;;;4.90;;
13566;SDS011;6855;48.112;11.298;2022-08-27T06:30:48;8.47;;;5.77;;
13566;SDS011;6855;48.112;11.298;2022-08-27T06:33:16;7.03;;;4.70;;
13566;SDS011;6855;48.112;11.298;2022-08-27T06:35:45;5.97;;;4.17;;
13566;SDS011;6855;48.112;11.298;2022-08-27T06:38:12;5.90;;;4.90;;
13566;SDS011;6855;48.112;11.298;2022-08-27T06:40:40;6.43;;;5.30;;
13566;SDS011;6855;48.112;11.298;2022-08-27T06:43:07;4.93;;;4.37;;
13566;SDS011;6855;48.112;11.298;2022-08-27T06:45:36;7.03;;;4.23;;
13566;SDS011;6855;48.112;11.298;2022-08-27T06:48:05;7.80;;;4.93;;
13566;SDS011;6855;48.112;11.298;2022-08-27T06:50:35;5.97;;;4.57;;
13566;SDS011;6855;48.112;11.298;2022-08-27T06:53:03;5.57;;;3.93;;
13566;SDS011;6855;48.112;11.298;2022-08-27T06:55:30;4.00;;;3.27;;
13566;SDS011;6855;48.112;11.298;2022-08-27T06:57:57;4.40;;;3.60;;
13566;SDS011;6855;48.112;11.298;2022-08-27T07:00:24;5.00;;;3.87;;
13566;SDS011;6855;48.112;11.298;2022-08-27T07:02:51;3.43;;;2.93;;
13566;SDS011;6855;48.112;11.298;2022-08-27T07:05:20;4.53;;;3.07;;
13566;SDS011;6855;48.112;11.298;2022-08-27T07:07:47;3.70;;;2.87;;
13566;SDS011;6855;48.112;11.298;2022-08-27T07:10:14;3.67;;;3.00;;
13566;SDS011;6855;48.112;11.298;2022-08-27T07:12:41;4.70;;;4.30;;
13566;SDS011;6855;48.112;11.298;2022-08-27T07:15:09;5.90;;;3.40;;
13566;SDS011;6855;48.112;11.298;2022-08-27T07:17:36;4.27;;;3.60;;
13566;SDS011;6855;48.112;11.298;2022-08-27T07:20:06;5.40;;;3.90;;
13566;SDS011;6855;48.112;11.298;2022-08-27T07:22:35;3.80;;;3.40;;
13566;SDS011;6855;48.112;11.298;2022-08-27T07:25:02;3.80;;;3.40;;
13566;SDS011;6855;48.112;11.298;2022-08-27T07:27:29;4.17;;;3.60;;
13566;SDS011;6855;48.112;11.298;2022-08-27T07:29:57;4.20;;;3.43;;
13566;SDS011;6855;48.112;11.298;2022-08-27T07:32:24;5.30;;;4.43;;
13566;SDS011;6855;48.112;11.298;2022-08-27T07:34:51;4.90;;;4.03;;
13566;SDS011;6855;48.112;11.298;2022-08-27T07:37:19;4.70;;;3.83;;
13566;SDS011;6855;48.112;11.298;2022-08-27T07:39:47;6.13;;;4.10;;
13566;SDS011;6855;48.112;11.298;2022-08-27T07:42:15;7.20;;;3.60;;
13566;SDS011;6855;48.112;11.298;2022-08-27T07:45:11;5.47;;;3.83;;
13566;SDS011;6855;48.112;11.298;2022-08-27T07:47:38;5.47;;;3.67;;
13566;SDS011;6855;48.112;11.298;2022-08-27T07:50:06;7.00;;;3.27;;
13566;SDS011;6855;48.112;11.298;2022-08-27T07:52:33;4.50;;;3.70;;
13566;SDS011;6855;48.112;11.298;2022-08-27T07:55:02;6.07;;;4.03;;
13566;SDS011;6855;48.112;11.298;2022-08-27T07:57:29;5.40;;;3.70;;
13566;SDS011;6855;48.112;11.298;2022-08-27T07:59:56;4.83;;;4.07;;
13566;SDS011;6855;48.112;11.298;2022-08-27T08:02:24;4.57;;;4.07;;
13566;SDS011;6855;48.112;11.298;2022-08-27T08:04:51;4.70;;;4.20;;
13566;SDS011;6855;48.112;11.298;2022-08-27T08:07:18;6.50;;;3.30;;
13566;SDS011;6855;48.112;11.298;2022-08-27T08:09:46;4.80;;;3.97;;
13566;SDS011;6855;48.112;11.298;2022-08-27T08:12:14;4.50;;;3.77;;
13566;SDS011;6855;48.112;11.298;2022-08-27T08:14:42;4.20;;;3.53;;
13566;SDS011;6855;48.112;11.298;2022-08-27T08:17:09;4.20;;;3.13;;
13566;SDS011;6855;48.112;11.298;2022-08-27T08:19:36;3.47;;;3.00;;
13566;SDS011;6855;48.112;11.298;2022-08-27T08:22:04;3.17;;;2.87;;
13566;SDS011;6855;48.112;11.298;2022-08-27T08:24:32;3.50;;;2.90;;
13566;SDS011;6855;48.112;11.298;2022-08-27T08:26:59;3.30;;;3.00;;
13566;SDS011;6855;48.112;11.298;2022-08-27T08:29:27;3.13;;;2.93;;
13566;SDS011;6855;48.112;11.298;2022-08-27T08:31:55;3.60;;;3.20;;
13566;SDS011;6855;48.112;11.298;2022-08-27T08:34:22;5.00;;;3.87;;
13566;SDS011;6855;48.112;11.298;2022-08-27T08:36:49;5.70;;;3.60;;
13566;SDS011;6855;48.112;11.298;2022-08-27T08:39:17;3.90;;;3.50;;
13566;SDS011;6855;48.112;11.298;2022-08-27T08:41:47;3.43;;;3.13;;
13566;SDS011;6855;48.112;11.298;2022-08-27T08:44:18;3.57;;;3.27;;
13566;SDS011;6855;48.112;11.298;2022-08-27T08:46:51;5.10;;;3.50;;
13566;SDS011;6855;48.112;11.298;2022-08-27T08:49:24;5.57;;;2.70;;
13566;SDS011;6855;48.112;11.298;2022-08-27T08:51:53;4.30;;;3.70;;
13566;SDS011;6855;48.112;11.298;2022-08-27T08:54:22;4.00;;;3.57;;
13566;SDS011;6855;48.112;11.298;2022-08-27T08:56:51;3.50;;;3.07;;
13566;SDS011;6855;48.112;11.298;2022-08-27T08:59:22;3.47;;;3.07;;
13566;SDS011;6855;48.112;11.298;2022-08-27T09:01:53;3.90;;;3.13;;
13566;SDS011;6855;48.112;11.298;2022-08-27T09:04:20;3.90;;;3.20;;
13566;SDS011;6855;48.112;11.298;2022-08-27T09:06:52;5.40;;;3.77;;
13566;SDS011;6855;48.112;11.298;2022-08-27T09:09:21;5.97;;;3.97;;
13566;SDS011;6855;48.112;11.298;2022-08-27T09:11:51;4.33;;;3.33;;
13566;SDS011;6855;48.112;11.298;2022-08-27T09:14:25;3.93;;;3.53;;
13566;SDS011;6855;48.112;11.298;2022-08-27T09:16:59;3.40;;;3.03;;
13566;SDS011;6855;48.112;11.298;2022-08-27T09:19:27;3.70;;;3.10;;
13566;SDS011;6855;48.112;11.298;2022-08-27T09:21:56;4.07;;;3.53;;
13566;SDS011;6855;48.112;11.298;2022-08-27T09:24:25;3.63;;;3.30;;
13566;SDS011;6855;48.112;11.298;2022-08-27T09:26:56;3.60;;;3.00;;
13566;SDS011;6855;48.112;11.298;2022-08-27T09:29:25;5.27;;;4.00;;
13566;SDS011;6855;48.112;11.298;2022-08-27T09:31:53;4.37;;;3.70;;
13566;SDS011;6855;48.112;11.298;2022-08-27T09:34:23;6.03;;;4.10;;
13566;SDS011;6855;48.112;11.298;2022-08-27T09:36:57;4.03;;;3.37;;
13566;SDS011;6855;48.112;11.298;2022-08-27T09:39:27;4.20;;;3.80;;
13566;SDS011;6855;48.112;11.298;2022-08-27T09:41:55;7.73;;;3.40;;
13566;SDS011;6855;48.112;11.298;2022-08-27T09:44:22;4.63;;;3.70;;
13566;SDS011;6855;48.112;11.298;2022-08-27T09:46:50;5.93;;;4.00;;
13566;SDS011;6855;48.112;11.298;2022-08-27T09:49:17;4.97;;;4.17;;
13566;SDS011;6855;48.112;11.298;2022-08-27T09:51:46;4.70;;;4.00;;
13566;SDS011;6855;48.112;11.298;2022-08-27T09:54:24;8.93;;;4.37;;
13566;SDS011;6855;48.112;11.298;2022-08-27T09:56:52;5.47;;;4.10;;
13566;SDS011;6855;48.112;11.298;2022-08-27T09:59:23;9.67;;;4.70;;
13566;SDS011;6855;48.112;11.298;2022-08-27T10:01:53;5.30;;;4.33;;
13566;SDS011;6855;48.112;11.298;2022-08-27T10:04:26;8.80;;;4.67;;
13566;SDS011;6855;48.112;11.298;2022-08-27T10:06:54;4.07;;;3.60;;
13566;SDS011;6855;48.112;11.298;2022-08-27T10:09:23;5.37;;;3.80;;
13566;SDS011;6855;48.112;11.298;2022-08-27T10:11:56;6.37;;;4.07;;
13566;SDS011;6855;48.112;11.298;2022-08-27T10:14:25;7.03;;;3.93;;
13566;SDS011;6855;48.112;11.298;2022-08-27T10:16:58;5.13;;;3.83;;
13566;SDS011;6855;48.112;11.298;2022-08-27T10:19:34;5.10;;;3.93;;
13566;SDS011;6855;48.112;11.298;2022-08-27T10:22:09;5.73;;;4.40;;
13566;SDS011;6855;48.112;11.298;2022-08-27T10:24:40;6.00;;;4.00;;
13566;SDS011;6855;48.112;11.298;2022-08-27T10:27:09;5.30;;;4.17;;
13566;SDS011;6855;48.112;11.298;2022-08-27T10:29:42;5.37;;;4.47;;
13566;SDS011;6855;48.112;11.298;2022-08-27T10:32:14;5.40;;;4.50;;
13566;SDS011;6855;48.112;11.298;2022-08-27T10:34:44;4.97;;;4.57;;
13566;SDS011;6855;48.112;11.298;2022-08-27T10:37:20;5.07;;;4.20;;
13566;SDS011;6855;48.112;11.298;2022-08-27T10:39:54;6.33;;;3.87;;
13566;SDS011;6855;48.112;11.298;2022-08-27T10:42:23;5.10;;;4.50;;
13566;SDS011;6855;48.112;11.298;2022-08-27T10:44:58;5.73;;;3.83;;
13566;SDS011;6855;48.112;11.298;2022-08-27T10:47:31;7.40;;;3.80;;
13566;SDS011;6855;48.112;11.298;2022-08-27T10:50:03;6.73;;;3.60;;
13566;SDS011;6855;48.112;11.298;2022-08-27T10:52:34;4.80;;;4.30;;
13566;SDS011;6855;48.112;11.298;2022-08-27T10:55:05;10.50;;;5.73;;
13566;SDS011;6855;48.112;11.298;2022-08-27T10:57:40;7.53;;;4.07;;
13566;SDS011;6855;48.112;11.298;2022-08-27T11:00:11;3.60;;;3.13;;
13566;SDS011;6855;48.112;11.298;2022-08-27T11:02:41;4.03;;;3.70;;
13566;SDS011;6855;48.112;11.298;2022-08-27T11:05:13;4.70;;;4.10;;
13566;SDS011;6855;48.112;11.298;2022-08-27T11:07:45;4.00;;;3.40;;
13566;SDS011;6855;48.112;11.298;2022-08-27T11:10:22;3.80;;;3.40;;
13566;SDS011;6855;48.112;11.298;2022-08-27T11:12:55;4.90;;;3.50;;
13566;SDS011;6855;48.112;11.298;2022-08-27T11:15:28;3.47;;;3.10;;
13566;SDS011;6855;48.112;11.298;2022-08-27T11:18:14;4.10;;;3.40;;
13566;SDS011;6855;48.112;11.298;2022-08-27T11:20:50;6.03;;;3.30;;
13566;SDS011;6855;48.112;11.298;2022-08-27T11:23:26;2.73;;;2.53;;
13566;SDS011;6855;48.112;11.298;2022-08-27T11:26:06;3.80;;;2.90;;
13566;SDS011;6855;48.112;11.298;2022-08-27T11:28:45;3.73;;;3.33;;
13566;SDS011;6855;48.112;11.298;2022-08-27T11:31:15;6.50;;;3.90;;
13566;SDS011;6855;48.112;11.298;2022-08-27T11:33:46;3.10;;;2.73;;
13566;SDS011;6855;48.112;11.298;2022-08-27T11:36:25;2.60;;;2.40;;
13566;SDS011;6855;48.112;11.298;2022-08-27T11:38:57;4.03;;;3.10;;
13566;SDS011;6855;48.112;11.298;2022-08-27T11:44:14;3.83;;;3.17;;
13566;SDS011;6855;48.112;11.298;2022-08-27T11:46:42;4.33;;;3.57;;
13566;SDS011;6855;48.112;11.298;2022-08-27T11:49:10;4.27;;;3.17;;
13566;SDS011;6855;48.112;11.298;2022-08-27T11:51:54;4.00;;;3.40;;
13566;SDS011;6855;48.112;11.298;2022-08-27T11:54:25;4.80;;;3.47;;
13566;SDS011;6855;48.112;11.298;2022-08-27T11:56:52;3.00;;;2.80;;
13566;SDS011;6855;48.112;11.298;2022-08-27T11:59:20;6.90;;;3.87;;
13566;SDS011;6855;48.112;11.298;2022-08-27T12:01:48;4.33;;;3.47;;
13566;SDS011;6855;48.112;11.298;2022-08-27T12:04:21;3.83;;;3.13;;
13566;SDS011;6855;48.112;11.298;2022-08-27T12:06:50;3.47;;;3.17;;
13566;SDS011;6855;48.112;11.298;2022-08-27T12:09:18;5.93;;;3.87;;
13566;SDS011;6855;48.112;11.298;2022-08-27T12:11:50;8.27;;;3.80;;
13566;SDS011;6855;48.112;11.298;2022-08-27T12:14:26;4.93;;;4.27;;
13566;SDS011;6855;48.112;11.298;2022-08-27T12:16:56;7.00;;;4.10;;
13566;SDS011;6855;48.112;11.298;2022-08-27T12:19:28;4.90;;;3.80;;
13566;SDS011;6855;48.112;11.298;2022-08-27T12:22:03;3.77;;;3.47;;
13566;SDS011;6855;48.112;11.298;2022-08-27T12:24:46;8.43;;;3.60;;
13566;SDS011;6855;48.112;11.298;2022-08-27T12:27:27;4.73;;;3.67;;
13566;SDS011;6855;48.112;11.298;2022-08-27T12:29:56;3.67;;;3.23;;
13566;SDS011;6855;48.112;11.298;2022-08-27T12:32:25;4.87;;;3.43;;
13566;SDS011;6855;48.112;11.298;2022-08-27T12:34:58;9.77;;;3.73;;
13566;SDS011;6855;48.112;11.298;2022-08-27T12:37:28;3.83;;;3.00;;
13566;SDS011;6855;48.112;11.298;2022-08-27T12:39:56;4.70;;;3.30;;
13566;SDS011;6855;48.112;11.298;2022-08-27T12:42:25;5.27;;;3.90;;
13566;SDS011;6855;48.112;11.298;2022-08-27T12:44:53;3.83;;;3.20;;
13566;SDS011;6855;48.112;11.298;2022-08-27T12:47:21;5.10;;;3.27;;
13566;SDS011;6855;48.112;11.298;2022-08-27T12:49:50;5.37;;;3.80;;
13566;SDS011;6855;48.112;11.298;2022-08-27T12:52:26;4.10;;;3.70;;
13566;SDS011;6855;48.112;11.298;2022-08-27T12:55:00;4.10;;;3.10;;
13566;SDS011;6855;48.112;11.298;2022-08-27T12:57:35;4.60;;;3.20;;
13566;SDS011;6855;48.112;11.298;2022-08-27T13:00:05;3.63;;;3.30;;
13566;SDS011;6855;48.112;11.298;2022-08-27T13:02:41;4.80;;;3.40;;
13566;SDS011;6855;48.112;11.298;2022-08-27T13:05:16;3.80;;;3.37;;
13566;SDS011;6855;48.112;11.298;2022-08-27T13:07:45;5.27;;;3.37;;
13566;SDS011;6855;48.112;11.298;2022-08-27T13:10:14;4.87;;;3.60;;
13566;SDS011;6855;48.112;11.298;2022-08-27T13:12:44;3.93;;;3.07;;
13566;SDS011;6855;48.112;11.298;2022-08-27T13:15:13;4.83;;;3.00;;
13566;SDS011;6855;48.112;11.298;2022-08-27T13:17:42;3.53;;;3.17;;
13566;SDS011;6855;48.112;11.298;2022-08-27T13:20:12;7.20;;;3.50;;
13566;SDS011;6855;48.112;11.298;2022-08-27T13:22:40;3.77;;;3.40;;
13566;SDS011;6855;48.112;11.298;2022-08-27T13:25:17;3.40;;;2.73;;
13566;SDS011;6855;48.112;11.298;2022-08-27T13:27:51;6.30;;;3.40;;
13566;SDS011;6855;48.112;11.298;2022-08-27T13:30:19;5.53;;;3.30;;
13566;SDS011;6855;48.112;11.298;2022-08-27T13:32:47;3.40;;;3.10;;
13566;SDS011;6855;48.112;11.298;2022-08-27T13:35:15;7.37;;;3.47;;
13566;SDS011;6855;48.112;11.298;2022-08-27T13:37:43;4.60;;;2.90;;
13566;SDS011;6855;48.112;11.298;2022-08-27T13:40:21;6.83;;;3.27;;
13566;SDS011;6855;48.112;11.298;2022-08-27T13:42:50;4.53;;;3.00;;
13566;SDS011;6855;48.112;11.298;2022-08-27T13:45:17;3.90;;;3.27;;
13566;SDS011;6855;48.112;11.298;2022-08-27T13:47:45;4.97;;;2.97;;
13566;SDS011;6855;48.112;11.298;2022-08-27T13:50:16;3.27;;;2.97;;
13566;SDS011;6855;48.112;11.298;2022-08-27T13:52:45;3.63;;;3.03;;
13566;SDS011;6855;48.112;11.298;2022-08-27T13:55:27;3.67;;;2.87;;
13566;SDS011;6855;48.112;11.298;2022-08-27T13:57:55;2.63;;;2.43;;
13566;SDS011;6855;48.112;11.298;2022-08-27T14:00:24;6.30;;;2.67;;
13566;SDS011;6855;48.112;11.298;2022-08-27T14:02:52;3.40;;;2.30;;
13566;SDS011;6855;48.112;11.298;2022-08-27T14:05:25;4.07;;;2.70;;
13566;SDS011;6855;48.112;11.298;2022-08-27T14:07:56;2.90;;;2.67;;
13566;SDS011;6855;48.112;11.298;2022-08-27T14:10:28;2.63;;;2.43;;
13566;SDS011;6855;48.112;11.298;2022-08-27T14:12:58;2.20;;;2.00;;
13566;SDS011;6855;48.112;11.298;2022-08-27T14:15:28;3.87;;;2.90;;
13566;SDS011;6855;48.112;11.298;2022-08-27T14:17:57;3.87;;;2.60;;
13566;SDS011;6855;48.112;11.298;2022-08-27T14:20:25;4.50;;;2.80;;
13566;SDS011;6855;48.112;11.298;2022-08-27T14:22:52;5.63;;;2.77;;
13566;SDS011;6855;48.112;11.298;2022-08-27T14:25:20;2.77;;;2.30;;
13566;SDS011;6855;48.112;11.298;2022-08-27T14:27:48;3.90;;;2.83;;
13566;SDS011;6855;48.112;11.298;2022-08-27T14:30:18;3.57;;;2.87;;
13566;SDS011;6855;48.112;11.298;2022-08-27T14:32:46;2.60;;;2.50;;
13566;SDS011;6855;48.112;11.298;2022-08-27T14:35:13;5.13;;;2.80;;
13566;SDS011;6855;48.112;11.298;2022-08-27T14:37:41;6.40;;;3.07;;
13566;SDS011;6855;48.112;11.298;2022-08-27T14:40:10;5.90;;;3.13;;
13566;SDS011;6855;48.112;11.298;2022-08-27T14:42:38;3.53;;;3.10;;
13566;SDS011;6855;48.112;11.298;2022-08-27T14:45:06;3.80;;;2.93;;
13566;SDS011;6855;48.112;11.298;2022-08-27T14:47:36;3.60;;;2.90;;
13566;SDS011;6855;48.112;11.298;2022-08-27T14:50:05;3.27;;;2.80;;
13566;SDS011;6855;48.112;11.298;2022-08-27T14:52:33;8.63;;;2.83;;
13566;SDS011;6855;48.112;11.298;2022-08-27T14:55:00;4.00;;;3.37;;
13566;SDS011;6855;48.112;11.298;2022-08-27T14:57:28;3.73;;;3.03;;
13566;SDS011;6855;48.112;11.298;2022-08-27T14:59:55;4.60;;;3.00;;
13566;SDS011;6855;48.112;11.298;2022-08-27T15:02:22;5.27;;;3.27;;